sensor_id;sensor_type;location;lat;lon;timestamp;P1;durP1;ratioP1;P2;durP2;ratioP2
72275;SDS011;61204;49.980;8.358;2022-08-03T00:00:50;4.15;;;2.58;;
72275;SDS011;61204;49.980;8.358;2022-08-03T00:03:16;3.38;;;2.35;;
72275;SDS011;61204;49.980;8.358;2022-08-03T00:05:42;8.23;;;2.78;;
72275;SDS011;61204;49.980;8.358;2022-08-03T00:08:08;5.75;;;2.33;;
72275;SDS011;61204;49.980;8.358;2022-08-03T00:10:33;4.57;;;2.63;;
72275;SDS011;61204;49.980;8.358;2022-08-03T00:12:59;7.45;;;3.05;;
72275;SDS011;61204;49.980;8.358;2022-08-03T00:15:25;5.10;;;2.63;;
72275;SDS011;61204;49.980;8.358;2022-08-03T00:17:50;5.78;;;2.63;;
72275;SDS011;61204;49.980;8.358;2022-08-03T00:20:16;5.80;;;2.90;;
72275;SDS011;61204;49.980;8.358;2022-08-03T00:22:42;5.03;;;2.80;;
72275;SDS011;61204;49.980;8.358;2022-08-03T00:25:08;5.45;;;2.58;;
72275;SDS011;61204;49.980;8.358;2022-08-03T00:27:33;3.85;;;2.25;;
72275;SDS011;61204;49.980;8.358;2022-08-03T00:29:59;4.97;;;2.47;;
72275;SDS011;61204;49.980;8.358;2022-08-03T00:32:24;5.85;;;2.67;;
72275;SDS011;61204;49.980;8.358;2022-08-03T00:34:50;6.30;;;2.83;;
72275;SDS011;61204;49.980;8.358;2022-08-03T00:37:16;3.80;;;2.40;;
72275;SDS011;61204;49.980;8.358;2022-08-03T00:39:41;4.55;;;2.47;;
72275;SDS011;61204;49.980;8.358;2022-08-03T00:42:09;6.07;;;2.50;;
72275;SDS011;61204;49.980;8.358;2022-08-03T00:44:39;3.47;;;2.70;;
72275;SDS011;61204;49.980;8.358;2022-08-03T00:47:09;6.07;;;2.60;;
72275;SDS011;61204;49.980;8.358;2022-08-03T00:49:36;5.65;;;2.80;;
72275;SDS011;61204;49.980;8.358;2022-08-03T00:52:04;6.60;;;2.90;;
72275;SDS011;61204;49.980;8.358;2022-08-03T00:54:33;5.70;;;2.58;;
72275;SDS011;61204;49.980;8.358;2022-08-03T00:57:01;4.18;;;2.55;;
72275;SDS011;61204;49.980;8.358;2022-08-03T00:59:28;5.47;;;2.72;;
72275;SDS011;61204;49.980;8.358;2022-08-03T01:01:55;7.18;;;3.45;;
72275;SDS011;61204;49.980;8.358;2022-08-03T01:04:21;6.32;;;2.78;;
72275;SDS011;61204;49.980;8.358;2022-08-03T01:09:52;5.22;;;2.50;;
72275;SDS011;61204;49.980;8.358;2022-08-03T01:12:38;5.00;;;2.38;;
72275;SDS011;61204;49.980;8.358;2022-08-03T01:16:02;4.50;;;2.30;;
72275;SDS011;61204;49.980;8.358;2022-08-03T01:21:25;7.85;;;2.50;;
72275;SDS011;61204;49.980;8.358;2022-08-03T01:27:15;4.40;;;2.55;;
72275;SDS011;61204;49.980;8.358;2022-08-03T01:29:58;3.55;;;2.70;;
72275;SDS011;61204;49.980;8.358;2022-08-03T01:32:37;2.78;;;2.40;;
72275;SDS011;61204;49.980;8.358;2022-08-03T01:35:31;4.97;;;2.60;;
72275;SDS011;61204;49.980;8.358;2022-08-03T01:38:10;3.55;;;2.88;;
72275;SDS011;61204;49.980;8.358;2022-08-03T01:40:44;3.97;;;2.90;;
72275;SDS011;61204;49.980;8.358;2022-08-03T01:43:14;4.97;;;2.78;;
72275;SDS011;61204;49.980;8.358;2022-08-03T01:45:44;4.20;;;2.85;;
72275;SDS011;61204;49.980;8.358;2022-08-03T01:48:12;4.35;;;3.15;;
72275;SDS011;61204;49.980;8.358;2022-08-03T01:50:44;3.35;;;2.20;;
72275;SDS011;61204;49.980;8.358;2022-08-03T01:53:16;5.53;;;3.10;;
72275;SDS011;61204;49.980;8.358;2022-08-03T01:55:45;3.97;;;2.80;;
72275;SDS011;61204;49.980;8.358;2022-08-03T01:58:16;3.83;;;2.85;;
72275;SDS011;61204;49.980;8.358;2022-08-03T02:00:45;5.38;;;2.90;;
72275;SDS011;61204;49.980;8.358;2022-08-03T02:03:15;3.58;;;2.67;;
72275;SDS011;61204;49.980;8.358;2022-08-03T02:05:44;5.60;;;2.85;;
72275;SDS011;61204;49.980;8.358;2022-08-03T02:08:13;4.97;;;3.15;;
72275;SDS011;61204;49.980;8.358;2022-08-03T02:10:43;4.15;;;2.83;;
72275;SDS011;61204;49.980;8.358;2022-08-03T02:13:11;4.82;;;2.95;;
72275;SDS011;61204;49.980;8.358;2022-08-03T02:15:41;6.32;;;3.05;;
72275;SDS011;61204;49.980;8.358;2022-08-03T02:18:09;4.47;;;3.10;;
72275;SDS011;61204;49.980;8.358;2022-08-03T02:20:37;4.22;;;3.33;;
72275;SDS011;61204;49.980;8.358;2022-08-03T02:23:07;4.13;;;2.90;;
72275;SDS011;61204;49.980;8.358;2022-08-03T02:25:44;4.18;;;2.75;;
72275;SDS011;61204;49.980;8.358;2022-08-03T02:28:21;5.38;;;3.08;;
72275;SDS011;61204;49.980;8.358;2022-08-03T02:30:58;6.80;;;3.22;;
72275;SDS011;61204;49.980;8.358;2022-08-03T02:33:35;7.38;;;2.95;;
72275;SDS011;61204;49.980;8.358;2022-08-03T02:36:08;4.25;;;2.90;;
72275;SDS011;61204;49.980;8.358;2022-08-03T02:38:40;5.05;;;3.10;;
72275;SDS011;61204;49.980;8.358;2022-08-03T02:41:14;4.15;;;3.00;;
72275;SDS011;61204;49.980;8.358;2022-08-03T02:43:47;6.57;;;3.30;;
72275;SDS011;61204;49.980;8.358;2022-08-03T02:46:19;5.00;;;3.00;;
72275;SDS011;61204;49.980;8.358;2022-08-03T02:48:56;3.42;;;3.13;;
72275;SDS011;61204;49.980;8.358;2022-08-03T02:51:27;4.50;;;2.97;;
72275;SDS011;61204;49.980;8.358;2022-08-03T02:53:59;3.90;;;3.17;;
72275;SDS011;61204;49.980;8.358;2022-08-03T02:56:28;3.33;;;3.00;;
72275;SDS011;61204;49.980;8.358;2022-08-03T02:58:55;6.20;;;3.22;;
72275;SDS011;61204;49.980;8.358;2022-08-03T03:01:24;3.85;;;3.40;;
72275;SDS011;61204;49.980;8.358;2022-08-03T03:03:54;5.88;;;3.30;;
72275;SDS011;61204;49.980;8.358;2022-08-03T03:06:22;5.90;;;3.47;;
72275;SDS011;61204;49.980;8.358;2022-08-03T03:08:51;4.32;;;3.25;;
72275;SDS011;61204;49.980;8.358;2022-08-03T03:11:19;5.18;;;3.53;;
72275;SDS011;61204;49.980;8.358;2022-08-03T03:13:48;4.00;;;3.30;;
72275;SDS011;61204;49.980;8.358;2022-08-03T03:16:16;6.65;;;3.50;;
72275;SDS011;61204;49.980;8.358;2022-08-03T03:18:44;3.92;;;2.67;;
72275;SDS011;61204;49.980;8.358;2022-08-03T03:21:15;5.13;;;3.17;;
72275;SDS011;61204;49.980;8.358;2022-08-03T03:23:45;5.95;;;3.50;;
72275;SDS011;61204;49.980;8.358;2022-08-03T03:26:13;4.00;;;2.88;;
72275;SDS011;61204;49.980;8.358;2022-08-03T03:28:40;4.53;;;3.20;;
72275;SDS011;61204;49.980;8.358;2022-08-03T03:31:08;4.05;;;2.90;;
72275;SDS011;61204;49.980;8.358;2022-08-03T03:33:34;3.78;;;3.17;;
72275;SDS011;61204;49.980;8.358;2022-08-03T03:36:02;6.40;;;2.97;;
72275;SDS011;61204;49.980;8.358;2022-08-03T03:38:32;7.20;;;3.67;;
72275;SDS011;61204;49.980;8.358;2022-08-03T03:40:58;8.00;;;3.97;;
72275;SDS011;61204;49.980;8.358;2022-08-03T03:43:25;3.70;;;3.30;;
72275;SDS011;61204;49.980;8.358;2022-08-03T03:45:51;4.25;;;3.28;;
72275;SDS011;61204;49.980;8.358;2022-08-03T03:48:19;4.22;;;3.20;;
72275;SDS011;61204;49.980;8.358;2022-08-03T03:50:45;7.15;;;3.33;;
72275;SDS011;61204;49.980;8.358;2022-08-03T03:53:13;7.03;;;4.20;;
72275;SDS011;61204;49.980;8.358;2022-08-03T03:55:39;4.80;;;3.38;;
72275;SDS011;61204;49.980;8.358;2022-08-03T03:58:06;6.28;;;3.40;;
72275;SDS011;61204;49.980;8.358;2022-08-03T04:00:32;3.70;;;3.40;;
72275;SDS011;61204;49.980;8.358;2022-08-03T04:02:59;4.55;;;3.95;;
72275;SDS011;61204;49.980;8.358;2022-08-03T04:05:25;4.93;;;3.40;;
72275;SDS011;61204;49.980;8.358;2022-08-03T04:08:11;6.00;;;3.22;;
72275;SDS011;61204;49.980;8.358;2022-08-03T04:13:49;4.32;;;3.45;;
72275;SDS011;61204;49.980;8.358;2022-08-03T04:16:26;6.13;;;3.25;;
72275;SDS011;61204;49.980;8.358;2022-08-03T04:19:02;4.80;;;3.35;;
72275;SDS011;61204;49.980;8.358;2022-08-03T04:21:35;4.40;;;3.50;;
72275;SDS011;61204;49.980;8.358;2022-08-03T04:24:07;4.80;;;3.03;;
72275;SDS011;61204;49.980;8.358;2022-08-03T04:26:39;3.67;;;3.00;;
72275;SDS011;61204;49.980;8.358;2022-08-03T04:29:09;3.42;;;2.90;;
72275;SDS011;61204;49.980;8.358;2022-08-03T04:31:38;5.03;;;3.22;;
72275;SDS011;61204;49.980;8.358;2022-08-03T04:34:06;4.03;;;3.10;;
72275;SDS011;61204;49.980;8.358;2022-08-03T04:36:36;3.40;;;2.75;;
72275;SDS011;61204;49.980;8.358;2022-08-03T04:39:24;4.97;;;2.90;;
72275;SDS011;61204;49.980;8.358;2022-08-03T04:41:57;7.43;;;3.00;;
72275;SDS011;61204;49.980;8.358;2022-08-03T04:44:30;4.93;;;2.80;;
72275;SDS011;61204;49.980;8.358;2022-08-03T04:47:05;6.25;;;3.10;;
72275;SDS011;61204;49.980;8.358;2022-08-03T04:49:32;5.25;;;2.70;;
72275;SDS011;61204;49.980;8.358;2022-08-03T04:52:02;3.75;;;2.70;;
72275;SDS011;61204;49.980;8.358;2022-08-03T04:54:37;6.28;;;2.67;;
72275;SDS011;61204;49.980;8.358;2022-08-03T04:57:06;3.05;;;2.38;;
72275;SDS011;61204;49.980;8.358;2022-08-03T04:59:32;2.45;;;2.15;;
72275;SDS011;61204;49.980;8.358;2022-08-03T05:01:57;3.05;;;2.30;;
72275;SDS011;61204;49.980;8.358;2022-08-03T05:04:23;6.32;;;2.58;;
72275;SDS011;61204;49.980;8.358;2022-08-03T05:06:48;4.20;;;2.13;;
72275;SDS011;61204;49.980;8.358;2022-08-03T05:09:14;3.58;;;2.50;;
72275;SDS011;61204;49.980;8.358;2022-08-03T05:11:40;3.92;;;2.28;;
72275;SDS011;61204;49.980;8.358;2022-08-03T05:14:05;3.17;;;2.47;;
72275;SDS011;61204;49.980;8.358;2022-08-03T05:16:31;3.38;;;2.33;;
72275;SDS011;61204;49.980;8.358;2022-08-03T05:18:56;3.45;;;2.45;;
72275;SDS011;61204;49.980;8.358;2022-08-03T05:21:22;5.00;;;2.22;;
72275;SDS011;61204;49.980;8.358;2022-08-03T05:23:48;8.02;;;2.20;;
72275;SDS011;61204;49.980;8.358;2022-08-03T05:26:13;7.05;;;2.60;;
72275;SDS011;61204;49.980;8.358;2022-08-03T05:28:39;5.78;;;2.58;;
72275;SDS011;61204;49.980;8.358;2022-08-03T05:31:04;6.65;;;2.53;;
72275;SDS011;61204;49.980;8.358;2022-08-03T05:33:30;4.03;;;2.55;;
72275;SDS011;61204;49.980;8.358;2022-08-03T05:35:56;2.65;;;2.00;;
72275;SDS011;61204;49.980;8.358;2022-08-03T05:38:21;5.28;;;2.47;;
72275;SDS011;61204;49.980;8.358;2022-08-03T05:40:47;3.42;;;2.00;;
72275;SDS011;61204;49.980;8.358;2022-08-03T05:43:13;7.22;;;2.38;;
72275;SDS011;61204;49.980;8.358;2022-08-03T05:45:38;3.25;;;2.47;;
72275;SDS011;61204;49.980;8.358;2022-08-03T05:48:04;6.63;;;2.70;;
72275;SDS011;61204;49.980;8.358;2022-08-03T05:50:30;5.22;;;2.33;;
72275;SDS011;61204;49.980;8.358;2022-08-03T05:52:56;3.92;;;2.72;;
72275;SDS011;61204;49.980;8.358;2022-08-03T05:55:22;7.00;;;2.55;;
72275;SDS011;61204;49.980;8.358;2022-08-03T05:57:48;6.25;;;2.67;;
72275;SDS011;61204;49.980;8.358;2022-08-03T06:00:14;10.73;;;2.88;;
72275;SDS011;61204;49.980;8.358;2022-08-03T06:02:41;3.83;;;2.80;;
72275;SDS011;61204;49.980;8.358;2022-08-03T06:05:07;3.42;;;2.88;;
72275;SDS011;61204;49.980;8.358;2022-08-03T06:07:34;6.95;;;2.92;;
72275;SDS011;61204;49.980;8.358;2022-08-03T06:10:01;5.72;;;3.00;;
72275;SDS011;61204;49.980;8.358;2022-08-03T06:12:29;6.38;;;2.75;;
72275;SDS011;61204;49.980;8.358;2022-08-03T06:14:55;7.57;;;2.80;;
72275;SDS011;61204;49.980;8.358;2022-08-03T06:17:22;6.40;;;2.90;;
72275;SDS011;61204;49.980;8.358;2022-08-03T06:19:47;5.68;;;2.75;;
72275;SDS011;61204;49.980;8.358;2022-08-03T06:22:17;3.88;;;2.60;;
72275;SDS011;61204;49.980;8.358;2022-08-03T06:24:44;4.13;;;2.80;;
72275;SDS011;61204;49.980;8.358;2022-08-03T06:27:09;7.63;;;2.55;;
72275;SDS011;61204;49.980;8.358;2022-08-03T06:29:36;4.60;;;2.63;;
72275;SDS011;61204;49.980;8.358;2022-08-03T06:32:02;7.72;;;2.45;;
72275;SDS011;61204;49.980;8.358;2022-08-03T06:34:28;6.15;;;2.20;;
72275;SDS011;61204;49.980;8.358;2022-08-03T06:36:53;6.30;;;2.30;;
72275;SDS011;61204;49.980;8.358;2022-08-03T06:39:20;4.22;;;2.22;;
72275;SDS011;61204;49.980;8.358;2022-08-03T06:41:46;3.85;;;1.92;;
72275;SDS011;61204;49.980;8.358;2022-08-03T06:44:12;3.78;;;2.30;;
72275;SDS011;61204;49.980;8.358;2022-08-03T06:46:37;3.53;;;1.95;;
72275;SDS011;61204;49.980;8.358;2022-08-03T06:49:03;4.50;;;2.10;;
72275;SDS011;61204;49.980;8.358;2022-08-03T06:51:30;4.40;;;2.10;;
72275;SDS011;61204;49.980;8.358;2022-08-03T06:53:56;2.20;;;1.90;;
72275;SDS011;61204;49.980;8.358;2022-08-03T06:56:21;4.80;;;1.88;;
72275;SDS011;61204;49.980;8.358;2022-08-03T06:58:47;5.05;;;2.22;;
72275;SDS011;61204;49.980;8.358;2022-08-03T07:01:13;2.83;;;1.98;;
72275;SDS011;61204;49.980;8.358;2022-08-03T07:03:46;3.72;;;2.20;;
72275;SDS011;61204;49.980;8.358;2022-08-03T07:06:14;3.80;;;1.70;;
72275;SDS011;61204;49.980;8.358;2022-08-03T07:08:40;2.60;;;1.80;;
72275;SDS011;61204;49.980;8.358;2022-08-03T07:11:05;1.90;;;1.70;;
72275;SDS011;61204;49.980;8.358;2022-08-03T07:13:31;2.50;;;1.70;;
72275;SDS011;61204;49.980;8.358;2022-08-03T07:15:57;3.00;;;1.70;;
72275;SDS011;61204;49.980;8.358;2022-08-03T07:18:23;5.90;;;2.42;;
72275;SDS011;61204;49.980;8.358;2022-08-03T07:20:49;4.47;;;1.90;;
72275;SDS011;61204;49.980;8.358;2022-08-03T07:23:15;3.65;;;1.52;;
72275;SDS011;61204;49.980;8.358;2022-08-03T07:25:40;4.00;;;2.00;;
72275;SDS011;61204;49.980;8.358;2022-08-03T07:28:06;7.78;;;1.85;;
72275;SDS011;61204;49.980;8.358;2022-08-03T07:30:32;3.40;;;1.85;;
72275;SDS011;61204;49.980;8.358;2022-08-03T07:32:59;4.80;;;1.88;;
72275;SDS011;61204;49.980;8.358;2022-08-03T07:35:25;7.90;;;2.22;;
72275;SDS011;61204;49.980;8.358;2022-08-03T07:37:52;7.25;;;2.47;;
72275;SDS011;61204;49.980;8.358;2022-08-03T07:40:21;2.33;;;1.75;;
72275;SDS011;61204;49.980;8.358;2022-08-03T07:42:55;4.40;;;1.60;;
72275;SDS011;61204;49.980;8.358;2022-08-03T07:45:32;4.15;;;1.50;;
72275;SDS011;61204;49.980;8.358;2022-08-03T09:51:09;0.95;;;0.80;;
72275;SDS011;61204;49.980;8.358;2022-08-03T12:54:52;1.55;;;0.93;;
72275;SDS011;61204;49.980;8.358;2022-08-03T13:05:59;0.88;;;0.68;;
72275;SDS011;61204;49.980;8.358;2022-08-03T13:09:56;1.88;;;1.00;;
72275;SDS011;61204;49.980;8.358;2022-08-03T13:12:30;0.80;;;0.80;;
72275;SDS011;61204;49.980;8.358;2022-08-03T13:15:34;3.38;;;0.90;;
72275;SDS011;61204;49.980;8.358;2022-08-03T13:19:11;2.17;;;0.77;;
72275;SDS011;61204;49.980;8.358;2022-08-03T13:22:15;1.75;;;0.77;;
72275;SDS011;61204;49.980;8.358;2022-08-03T13:24:55;1.85;;;0.82;;
72275;SDS011;61204;49.980;8.358;2022-08-03T13:27:21;2.60;;;1.00;;
72275;SDS011;61204;49.980;8.358;2022-08-03T13:29:49;0.88;;;0.77;;
72275;SDS011;61204;49.980;8.358;2022-08-03T13:32:16;2.72;;;0.80;;
72275;SDS011;61204;49.980;8.358;2022-08-03T13:34:43;1.85;;;0.90;;
72275;SDS011;61204;49.980;8.358;2022-08-03T13:37:10;2.85;;;0.68;;
72275;SDS011;61204;49.980;8.358;2022-08-03T13:39:37;1.25;;;0.95;;
72275;SDS011;61204;49.980;8.358;2022-08-03T13:42:04;1.77;;;0.98;;
72275;SDS011;61204;49.980;8.358;2022-08-03T13:44:31;1.55;;;0.70;;
72275;SDS011;61204;49.980;8.358;2022-08-03T13:46:57;2.47;;;0.80;;
72275;SDS011;61204;49.980;8.358;2022-08-03T13:49:24;2.50;;;1.10;;
72275;SDS011;61204;49.980;8.358;2022-08-03T13:51:51;0.82;;;0.80;;
72275;SDS011;61204;49.980;8.358;2022-08-03T13:54:17;2.00;;;0.80;;
72275;SDS011;61204;49.980;8.358;2022-08-03T13:56:43;1.67;;;0.88;;
72275;SDS011;61204;49.980;8.358;2022-08-03T13:59:16;1.35;;;0.90;;
72275;SDS011;61204;49.980;8.358;2022-08-03T14:01:49;3.67;;;1.00;;
72275;SDS011;61204;49.980;8.358;2022-08-03T14:04:18;2.40;;;1.08;;
72275;SDS011;61204;49.980;8.358;2022-08-03T14:06:45;1.73;;;0.90;;
72275;SDS011;61204;49.980;8.358;2022-08-03T14:09:13;1.77;;;1.00;;
72275;SDS011;61204;49.980;8.358;2022-08-03T14:11:40;1.25;;;0.75;;
72275;SDS011;61204;49.980;8.358;2022-08-03T14:14:08;3.35;;;0.88;;
72275;SDS011;61204;49.980;8.358;2022-08-03T14:16:35;1.67;;;1.02;;
72275;SDS011;61204;49.980;8.358;2022-08-03T14:19:01;1.85;;;0.98;;
72275;SDS011;61204;49.980;8.358;2022-08-03T14:21:29;1.90;;;1.00;;
72275;SDS011;61204;49.980;8.358;2022-08-03T14:23:56;1.38;;;1.08;;
72275;SDS011;61204;49.980;8.358;2022-08-03T14:26:22;5.30;;;1.00;;
72275;SDS011;61204;49.980;8.358;2022-08-03T14:28:47;1.23;;;0.88;;
72275;SDS011;61204;49.980;8.358;2022-08-03T14:31:13;1.60;;;0.70;;
72275;SDS011;61204;49.980;8.358;2022-08-03T14:33:38;1.63;;;0.80;;
72275;SDS011;61204;49.980;8.358;2022-08-03T14:36:04;1.00;;;0.70;;
72275;SDS011;61204;49.980;8.358;2022-08-03T14:38:30;2.40;;;0.95;;
72275;SDS011;61204;49.980;8.358;2022-08-03T14:40:56;1.92;;;1.00;;
72275;SDS011;61204;49.980;8.358;2022-08-03T14:43:22;1.15;;;0.98;;
72275;SDS011;61204;49.980;8.358;2022-08-03T14:45:51;2.00;;;1.10;;
72275;SDS011;61204;49.980;8.358;2022-08-03T14:48:21;2.72;;;0.88;;
72275;SDS011;61204;49.980;8.358;2022-08-03T14:50:49;1.55;;;0.70;;
72275;SDS011;61204;49.980;8.358;2022-08-03T14:53:16;2.90;;;0.90;;
72275;SDS011;61204;49.980;8.358;2022-08-03T14:55:44;4.68;;;1.08;;
72275;SDS011;61204;49.980;8.358;2022-08-03T14:58:12;2.88;;;0.90;;
72275;SDS011;61204;49.980;8.358;2022-08-03T15:00:37;3.42;;;1.05;;
72275;SDS011;61204;49.980;8.358;2022-08-03T15:03:03;2.10;;;0.95;;
72275;SDS011;61204;49.980;8.358;2022-08-03T15:05:29;4.10;;;1.10;;
72275;SDS011;61204;49.980;8.358;2022-08-03T15:07:55;1.50;;;1.05;;
72275;SDS011;61204;49.980;8.358;2022-08-03T15:10:20;1.13;;;0.80;;
72275;SDS011;61204;49.980;8.358;2022-08-03T15:12:46;2.83;;;1.00;;
72275;SDS011;61204;49.980;8.358;2022-08-03T15:15:12;2.53;;;1.02;;
72275;SDS011;61204;49.980;8.358;2022-08-03T15:17:38;2.53;;;1.10;;
72275;SDS011;61204;49.980;8.358;2022-08-03T15:20:04;3.35;;;1.00;;
72275;SDS011;61204;49.980;8.358;2022-08-03T15:22:32;1.23;;;0.88;;
72275;SDS011;61204;49.980;8.358;2022-08-03T15:24:59;3.22;;;1.13;;
72275;SDS011;61204;49.980;8.358;2022-08-03T15:27:27;1.50;;;1.00;;
72275;SDS011;61204;49.980;8.358;2022-08-03T15:29:52;2.17;;;1.10;;
72275;SDS011;61204;49.980;8.358;2022-08-03T15:32:18;2.72;;;0.88;;
72275;SDS011;61204;49.980;8.358;2022-08-03T15:34:45;1.08;;;0.98;;
72275;SDS011;61204;49.980;8.358;2022-08-03T15:37:11;2.08;;;1.10;;
72275;SDS011;61204;49.980;8.358;2022-08-03T15:39:36;2.33;;;0.98;;
72275;SDS011;61204;49.980;8.358;2022-08-03T15:42:02;2.08;;;0.90;;
72275;SDS011;61204;49.980;8.358;2022-08-03T15:44:27;6.05;;;1.10;;
72275;SDS011;61204;49.980;8.358;2022-08-03T15:46:53;5.07;;;0.90;;
72275;SDS011;61204;49.980;8.358;2022-08-03T15:49:19;0.95;;;0.70;;
72275;SDS011;61204;49.980;8.358;2022-08-03T15:51:45;2.53;;;0.80;;
72275;SDS011;61204;49.980;8.358;2022-08-03T15:54:11;2.33;;;0.82;;
72275;SDS011;61204;49.980;8.358;2022-08-03T15:56:37;3.45;;;1.00;;
72275;SDS011;61204;49.980;8.358;2022-08-03T15:59:05;4.90;;;1.10;;
72275;SDS011;61204;49.980;8.358;2022-08-03T16:01:31;2.35;;;0.90;;
72275;SDS011;61204;49.980;8.358;2022-08-03T16:03:57;4.93;;;1.13;;
72275;SDS011;61204;49.980;8.358;2022-08-03T16:06:23;1.90;;;0.82;;
72275;SDS011;61204;49.980;8.358;2022-08-03T16:08:49;4.03;;;1.20;;
72275;SDS011;61204;49.980;8.358;2022-08-03T16:11:14;1.02;;;0.80;;
72275;SDS011;61204;49.980;8.358;2022-08-03T16:13:40;2.50;;;0.82;;
72275;SDS011;61204;49.980;8.358;2022-08-03T16:16:06;2.83;;;1.00;;
72275;SDS011;61204;49.980;8.358;2022-08-03T16:18:31;2.85;;;1.08;;
72275;SDS011;61204;49.980;8.358;2022-08-03T16:20:57;1.92;;;0.98;;
72275;SDS011;61204;49.980;8.358;2022-08-03T16:23:23;2.40;;;1.10;;
72275;SDS011;61204;49.980;8.358;2022-08-03T16:25:50;1.48;;;1.00;;
72275;SDS011;61204;49.980;8.358;2022-08-03T16:28:16;1.40;;;0.90;;
72275;SDS011;61204;49.980;8.358;2022-08-03T16:30:43;1.98;;;0.90;;
72275;SDS011;61204;49.980;8.358;2022-08-03T16:33:11;3.78;;;0.98;;
72275;SDS011;61204;49.980;8.358;2022-08-03T16:35:39;9.25;;;1.00;;
72275;SDS011;61204;49.980;8.358;2022-08-03T16:38:05;1.85;;;0.88;;
72275;SDS011;61204;49.980;8.358;2022-08-03T16:40:31;2.67;;;0.90;;
72275;SDS011;61204;49.980;8.358;2022-08-03T16:42:57;6.43;;;1.08;;
72275;SDS011;61204;49.980;8.358;2022-08-03T16:45:23;11.63;;;2.30;;
72275;SDS011;61204;49.980;8.358;2022-08-03T16:47:49;9.02;;;1.67;;
72275;SDS011;61204;49.980;8.358;2022-08-03T16:50:16;2.22;;;1.05;;
72275;SDS011;61204;49.980;8.358;2022-08-03T16:52:41;1.08;;;0.95;;
72275;SDS011;61204;49.980;8.358;2022-08-03T16:55:07;1.73;;;0.82;;
72275;SDS011;61204;49.980;8.358;2022-08-03T16:57:37;1.88;;;1.00;;
72275;SDS011;61204;49.980;8.358;2022-08-03T17:00:03;1.35;;;1.10;;
72275;SDS011;61204;49.980;8.358;2022-08-03T17:02:30;1.08;;;0.80;;
72275;SDS011;61204;49.980;8.358;2022-08-03T17:04:56;5.55;;;0.90;;
72275;SDS011;61204;49.980;8.358;2022-08-03T17:07:22;2.03;;;0.90;;
72275;SDS011;61204;49.980;8.358;2022-08-03T17:09:48;4.28;;;0.93;;
72275;SDS011;61204;49.980;8.358;2022-08-03T17:12:15;1.58;;;1.00;;
72275;SDS011;61204;49.980;8.358;2022-08-03T17:14:41;2.53;;;1.02;;
72275;SDS011;61204;49.980;8.358;2022-08-03T17:17:09;5.07;;;1.20;;
72275;SDS011;61204;49.980;8.358;2022-08-03T17:19:44;1.33;;;1.02;;
72275;SDS011;61204;49.980;8.358;2022-08-03T17:22:13;1.88;;;0.93;;
72275;SDS011;61204;49.980;8.358;2022-08-03T17:24:44;5.63;;;1.30;;
72275;SDS011;61204;49.980;8.358;2022-08-03T17:27:18;5.72;;;1.13;;
72275;SDS011;61204;49.980;8.358;2022-08-03T17:29:53;2.80;;;1.00;;
72275;SDS011;61204;49.980;8.358;2022-08-03T17:32:26;1.13;;;1.00;;
72275;SDS011;61204;49.980;8.358;2022-08-03T17:34:55;3.15;;;1.40;;
72275;SDS011;61204;49.980;8.358;2022-08-03T17:37:21;1.65;;;0.88;;
72275;SDS011;61204;49.980;8.358;2022-08-03T17:39:47;4.10;;;0.98;;
72275;SDS011;61204;49.980;8.358;2022-08-03T17:42:15;2.85;;;0.93;;
72275;SDS011;61204;49.980;8.358;2022-08-03T17:44:41;2.10;;;1.13;;
72275;SDS011;61204;49.980;8.358;2022-08-03T17:47:10;4.72;;;0.90;;
72275;SDS011;61204;49.980;8.358;2022-08-03T17:49:35;1.15;;;0.77;;
72275;SDS011;61204;49.980;8.358;2022-08-03T17:52:02;2.92;;;1.08;;
72275;SDS011;61204;49.980;8.358;2022-08-03T17:58:04;1.23;;;0.73;;
72275;SDS011;61204;49.980;8.358;2022-08-03T18:00:49;2.47;;;0.90;;
72275;SDS011;61204;49.980;8.358;2022-08-03T18:03:46;2.17;;;0.80;;
72275;SDS011;61204;49.980;8.358;2022-08-03T18:06:21;1.85;;;1.00;;
72275;SDS011;61204;49.980;8.358;2022-08-03T18:08:50;1.65;;;1.10;;
72275;SDS011;61204;49.980;8.358;2022-08-03T18:11:22;0.83;;;0.70;;
72275;SDS011;61204;49.980;8.358;2022-08-03T18:16:44;3.25;;;1.20;;
72275;SDS011;61204;49.980;8.358;2022-08-03T18:19:28;4.40;;;1.02;;
72275;SDS011;61204;49.980;8.358;2022-08-03T18:22:02;2.30;;;1.00;;
72275;SDS011;61204;49.980;8.358;2022-08-03T18:24:28;1.60;;;1.00;;
72275;SDS011;61204;49.980;8.358;2022-08-03T18:26:54;3.13;;;1.35;;
72275;SDS011;61204;49.980;8.358;2022-08-03T18:29:21;4.60;;;0.90;;
72275;SDS011;61204;49.980;8.358;2022-08-03T18:31:47;1.60;;;1.15;;
72275;SDS011;61204;49.980;8.358;2022-08-03T18:34:13;2.88;;;1.20;;
72275;SDS011;61204;49.980;8.358;2022-08-03T18:36:46;1.58;;;1.05;;
72275;SDS011;61204;49.980;8.358;2022-08-03T18:39:12;2.00;;;1.00;;
72275;SDS011;61204;49.980;8.358;2022-08-03T18:41:38;3.00;;;1.40;;
72275;SDS011;61204;49.980;8.358;2022-08-03T18:44:04;2.55;;;0.90;;
72275;SDS011;61204;49.980;8.358;2022-08-03T18:46:53;1.20;;;1.00;;
72275;SDS011;61204;49.980;8.358;2022-08-03T18:50:13;2.55;;;1.25;;
72275;SDS011;61204;49.980;8.358;2022-08-03T18:53:01;5.07;;;1.90;;
72275;SDS011;61204;49.980;8.358;2022-08-03T18:56:24;3.28;;;1.42;;
72275;SDS011;61204;49.980;8.358;2022-08-03T19:02:00;1.55;;;0.75;;
72275;SDS011;61204;49.980;8.358;2022-08-03T19:04:45;6.03;;;1.40;;
72275;SDS011;61204;49.980;8.358;2022-08-03T19:07:17;3.30;;;1.30;;
72275;SDS011;61204;49.980;8.358;2022-08-03T19:10:02;1.85;;;1.05;;
72275;SDS011;61204;49.980;8.358;2022-08-03T19:12:37;2.28;;;1.38;;
72275;SDS011;61204;49.980;8.358;2022-08-03T19:15:15;3.10;;;1.48;;
72275;SDS011;61204;49.980;8.358;2022-08-03T19:17:46;1.95;;;1.30;;
72275;SDS011;61204;49.980;8.358;2022-08-03T19:20:18;4.97;;;1.23;;
72275;SDS011;61204;49.980;8.358;2022-08-03T19:22:55;5.88;;;1.48;;
72275;SDS011;61204;49.980;8.358;2022-08-03T19:25:24;4.88;;;1.35;;
72275;SDS011;61204;49.980;8.358;2022-08-03T19:27:51;5.00;;;1.83;;
72275;SDS011;61204;49.980;8.358;2022-08-03T19:30:18;7.25;;;1.60;;
72275;SDS011;61204;49.980;8.358;2022-08-03T19:33:10;2.85;;;1.60;;
72275;SDS011;61204;49.980;8.358;2022-08-03T19:35:39;6.13;;;1.92;;
72275;SDS011;61204;49.980;8.358;2022-08-03T19:38:15;3.85;;;1.80;;
72275;SDS011;61204;49.980;8.358;2022-08-03T19:40:47;2.00;;;1.30;;
72275;SDS011;61204;49.980;8.358;2022-08-03T19:43:20;2.83;;;1.45;;
72275;SDS011;61204;49.980;8.358;2022-08-03T19:45:58;3.67;;;1.90;;
72275;SDS011;61204;49.980;8.358;2022-08-03T19:48:36;5.85;;;1.95;;
72275;SDS011;61204;49.980;8.358;2022-08-03T19:51:16;2.60;;;1.50;;
72275;SDS011;61204;49.980;8.358;2022-08-03T19:53:44;8.15;;;2.28;;
72275;SDS011;61204;49.980;8.358;2022-08-03T19:56:15;4.65;;;1.98;;
72275;SDS011;61204;49.980;8.358;2022-08-03T19:58:49;5.13;;;2.67;;
72275;SDS011;61204;49.980;8.358;2022-08-03T20:01:19;4.82;;;2.17;;
72275;SDS011;61204;49.980;8.358;2022-08-03T20:03:47;5.80;;;1.55;;
72275;SDS011;61204;49.980;8.358;2022-08-03T20:06:16;3.35;;;1.65;;
72275;SDS011;61204;49.980;8.358;2022-08-03T20:08:47;5.35;;;2.30;;
72275;SDS011;61204;49.980;8.358;2022-08-03T20:11:14;2.40;;;1.58;;
72275;SDS011;61204;49.980;8.358;2022-08-03T20:13:42;7.03;;;1.88;;
72275;SDS011;61204;49.980;8.358;2022-08-03T20:16:10;3.92;;;1.48;;
72275;SDS011;61204;49.980;8.358;2022-08-03T20:18:36;2.75;;;1.52;;
72275;SDS011;61204;49.980;8.358;2022-08-03T20:21:02;2.65;;;2.03;;
72275;SDS011;61204;49.980;8.358;2022-08-03T20:23:39;7.03;;;2.10;;
72275;SDS011;61204;49.980;8.358;2022-08-03T20:26:07;2.67;;;1.92;;
72275;SDS011;61204;49.980;8.358;2022-08-03T20:28:41;6.32;;;2.17;;
72275;SDS011;61204;49.980;8.358;2022-08-03T20:31:15;6.25;;;2.42;;
72275;SDS011;61204;49.980;8.358;2022-08-03T20:33:43;5.65;;;2.30;;
72275;SDS011;61204;49.980;8.358;2022-08-03T20:36:09;3.80;;;2.45;;
72275;SDS011;61204;49.980;8.358;2022-08-03T20:38:35;4.30;;;1.95;;